Time;durP1;ratioP1;P1;durP2;ratioP2;P2;SDS_P1;SDS_P2;PMS_P1;PMS_P2;Temp;Humidity;BMP_temperature;BMP_pressure;BME280_temperature;BME280_humidity;BME280_pressure;Samples;Min_cycle;Max_cycle;Signal;HPM_P1;HPM_P2
2023/07/06 00:01:00;;;;;;;7.45;3.47;;;;;;;12.39;80.94;96297.97;2114366;28;20048;-54
2023/07/06 00:02:04;;;;;;;7.35;3.55;;;;;;;12.39;81.16;96297.97;2114107;28;20502;-54
2023/07/06 00:03:05;;;;;;;8.70;3.55;;;;;;;12.39;81.42;96297.97;2115062;28;20419;-54
2023/07/06 00:04:06;;;;;;;8.10;3.70;;;;;;;12.41;80.87;96293.53;2114892;28;20048;-54
2023/07/06 00:05:08;;;;;;;5.85;3.75;;;;;;;12.42;80.84;96300.41;2114913;28;20051;-54
2023/07/06 00:06:09;;;;;;;5.93;3.35;;;;;;;12.41;81.43;96292.69;2114287;28;20059;-54
2023/07/06 00:07:12;;;;;;;8.30;3.78;;;;;;;12.42;81.03;96291.75;2114801;28;20508;-54
2023/07/06 00:08:18;;;;;;;6.55;3.20;;;;;;;12.32;80.63;96274.00;2114865;28;20380;-54
2023/07/06 00:09:20;;;;;;;7.82;3.58;;;;;;;12.42;81.22;96289.97;2115314;28;20043;-54
2023/07/06 00:10:22;;;;;;;5.28;3.25;;;;;;;12.40;81.46;96286.59;2114598;28;20047;-54
2023/07/06 00:11:23;;;;;;;5.55;3.40;;;;;;;12.43;81.66;96286.47;2114849;28;20044;-54
2023/07/06 00:12:24;;;;;;;9.25;3.50;;;;;;;12.43;81.92;96291.69;2114654;28;20062;-54
2023/07/06 00:13:25;;;;;;;7.22;3.35;;;;;;;12.46;82.16;96290.69;2114739;28;20050;-54
2023/07/06 00:14:27;;;;;;;8.65;3.60;;;;;;;12.44;81.66;96282.09;2114486;28;20059;-54
2023/07/06 00:15:28;;;;;;;6.60;3.33;;;;;;;12.43;82.38;96281.28;2114869;28;20040;-54
2023/07/06 00:16:29;;;;;;;6.57;3.53;;;;;;;12.41;82.61;96272.69;2114156;28;20407;-55
2023/07/06 00:17:30;;;;;;;6.00;3.47;;;;;;;12.45;82.47;96269.00;2114997;28;20044;-54
2023/07/06 00:18:32;;;;;;;5.72;3.50;;;;;;;12.46;82.94;96268.09;2114927;28;20047;-54
2023/07/06 00:19:34;;;;;;;5.78;3.35;;;;;;;12.47;82.51;96271.53;2114838;28;20387;-54
2023/07/06 00:20:38;;;;;;;5.78;3.75;;;;;;;12.48;82.75;96266.25;2114922;28;20039;-54
2023/07/06 00:21:40;;;;;;;6.85;3.72;;;;;;;12.48;82.62;96268.88;2114746;28;20032;-54
2023/07/06 00:22:41;;;;;;;8.82;3.88;;;;;;;12.49;82.45;96267.09;2115016;28;20459;-54
2023/07/06 00:23:43;;;;;;;6.13;3.45;;;;;;;12.48;82.63;96268.88;2114055;28;20062;-54
2023/07/06 00:24:46;;;;;;;8.05;3.60;;;;;;;12.44;82.62;96262.09;2114761;28;20047;-54
2023/07/06 00:25:47;;;;;;;6.22;3.25;;;;;;;12.49;82.50;96273.13;2113765;28;20075;-54
2023/07/06 00:26:48;;;;;;;7.03;3.22;;;;;;;12.50;83.20;96280.03;2114031;28;20154;-54
2023/07/06 00:27:49;;;;;;;8.68;3.83;;;;;;;12.50;82.64;96274.81;2113900;28;20058;-54
2023/07/06 00:28:50;;;;;;;7.95;3.70;;;;;;;12.47;82.98;96282.78;2105973;28;20431;-54
2023/07/06 00:30:07;;;;;;;6.95;4.10;;;;;;;12.46;83.02;96281.13;2105238;28;20094;-54
2023/07/06 00:31:20;;;;;;;7.57;4.10;;;;;;;12.43;83.00;96276.06;2114920;28;20039;-54
2023/07/06 00:32:28;;;;;;;6.13;3.58;;;;;;;12.41;82.91;96283.09;2105713;28;20075;-54
2023/07/06 00:33:29;;;;;;;6.38;3.90;;;;;;;12.38;82.66;96275.44;2106123;28;20059;-54
2023/07/06 00:34:34;;;;;;;6.70;3.00;;;;;;;12.28;82.96;96267.25;2113847;28;20074;-54
2023/07/06 00:35:35;;;;;;;6.88;3.55;;;;;;;12.24;82.93;96264.84;2104959;28;20212;-54
2023/07/06 00:36:37;;;;;;;6.38;3.50;;;;;;;12.31;83.10;96277.50;2105906;28;20048;-54
2023/07/06 00:37:38;;;;;;;8.75;3.72;;;;;;;12.30;83.37;96275.00;2114835;28;20044;-54
2023/07/06 00:38:40;;;;;;;5.43;3.47;;;;;;;12.27;83.57;96273.38;2114066;28;20059;-54
2023/07/06 00:39:41;;;;;;;7.90;3.55;;;;;;;12.24;83.61;96264.84;2114920;28;20047;-54
2023/07/06 00:40:46;;;;;;;6.78;3.70;;;;;;;12.26;84.14;96279.47;2105794;28;20059;-54
2023/07/06 00:41:48;;;;;;;6.13;3.50;;;;;;;12.24;84.39;96270.06;2106478;28;20060;-53
2023/07/06 00:42:50;;;;;;;5.70;3.58;;;;;;;12.20;83.87;96268.53;2114773;28;20482;-54
2023/07/06 00:43:54;;;;;;;5.68;4.20;;;;;;;12.19;84.12;96275.50;2105865;28;20047;-54
2023/07/06 00:44:59;;;;;;;6.38;3.78;;;;;;;12.12;84.89;96272.34;2097771;28;20033;-55
2023/07/06 00:46:08;;;;;;;7.00;3.92;;;;;;;12.08;85.38;96273.44;2105700;28;20121;-54
2023/07/06 00:47:11;;;;;;;6.57;3.88;;;;;;;12.04;85.20;96269.28;2100411;28;20055;-54
2023/07/06 00:48:27;;;;;;;7.68;4.18;;;;;;;11.97;85.73;96265.28;2089071;28;20384;-54
2023/07/06 00:49:28;;;;;;;6.10;3.55;;;;;;;12.00;86.04;96278.19;2099703;28;20439;-54
2023/07/06 00:50:31;;;;;;;6.38;3.45;;;;;;;11.97;85.96;96272.25;2106452;28;20139;-54
2023/07/06 00:51:34;;;;;;;7.25;4.10;;;;;;;11.85;86.66;96250.25;2113751;28;20394;-54
2023/07/06 00:52:44;;;;;;;7.25;3.92;;;;;;;11.93;86.03;96262.94;2105444;28;20067;-54
2023/07/06 00:53:48;;;;;;;7.40;3.50;;;;;;;11.78;85.58;96241.88;2090183;28;20481;-54
2023/07/06 00:54:49;;;;;;;6.32;3.53;;;;;;;11.85;85.64;96263.25;2091177;28;20036;-54
2023/07/06 00:55:51;;;;;;;6.47;3.90;;;;;;;11.80;86.27;96260.03;2105853;28;20039;-54
2023/07/06 00:56:52;;;;;;;6.50;3.58;;;;;;;11.73;85.94;96243.00;2113998;28;20047;-54
2023/07/06 00:57:56;;;;;;;10.23;3.42;;;;;;;11.78;86.06;96257.50;2114136;28;20366;-54
2023/07/06 00:59:04;;;;;;;6.70;3.45;;;;;;;11.68;85.81;96245.81;2096626;28;20103;-54
2023/07/06 01:00:07;;;;;;;6.53;3.72;;;;;;;11.67;86.16;96254.56;2089911;28;20061;-54
2023/07/06 01:01:08;;;;;;;7.50;3.45;;;;;;;11.72;86.12;96262.16;2097723;28;20071;-54
2023/07/06 01:02:11;;;;;;;5.97;3.60;;;;;;;11.66;86.53;96253.72;2089411;28;20056;-54
2023/07/06 01:03:12;;;;;;;7.50;3.67;;;;;;;11.67;86.48;96257.16;2089377;28;20048;-54
2023/07/06 01:04:15;;;;;;;8.38;3.72;;;;;;;11.58;86.45;96236.81;2097435;28;20040;-54
2023/07/06 01:05:16;;;;;;;6.47;3.75;;;;;;;11.64;86.26;96258.16;2105913;28;20534;-54
2023/07/06 01:06:24;;;;;;;5.45;3.30;;;;;;;11.59;86.37;96244.50;2088692;28;20049;-54
2023/07/06 01:07:25;;;;;;;6.43;4.15;;;;;;;11.59;86.10;96247.13;2090283;28;20136;-54
2023/07/06 01:08:26;;;;;;;7.43;4.00;;;;;;;11.58;86.53;96247.19;2089630;28;20049;-54
2023/07/06 01:09:29;;;;;;;5.90;3.60;;;;;;;11.53;86.33;96249.19;2080743;28;20060;-54
2023/07/06 01:10:33;;;;;;;5.78;3.55;;;;;;;11.49;86.52;96243.25;2081486;28;20406;-55
2023/07/06 01:11:35;;;;;;;7.85;4.22;;;;;;;11.43;87.30;96244.38;2080924;28;20513;-55
2023/07/06 01:12:37;;;;;;;5.65;3.83;;;;;;;11.40;87.49;96241.94;2073104;28;20486;-54
2023/07/06 01:13:38;;;;;;;6.68;3.95;;;;;;;11.38;87.42;96235.13;2097961;28;20044;-54
2023/07/06 01:14:40;;;;;;;9.13;4.43;;;;;;;11.35;87.75;96243.91;2105835;28;20044;-54
2023/07/06 01:16:01;;;;;;;6.88;4.07;;;;;;;11.28;87.67;96237.31;2105438;28;20044;-55
2023/07/06 01:17:08;;;;;;;6.93;4.03;;;;;;;11.29;88.35;96243.34;2104866;28;20071;-54
2023/07/06 01:18:24;;;;;;;6.47;4.07;;;;;;;11.14;87.99;96224.09;2098635;28;20045;-54
2023/07/06 01:19:55;;;;;;;7.90;4.60;;;;;;;11.20;88.24;96255.88;2091428;28;20044;-54
2023/07/06 01:21:25;;;;;;;8.02;4.95;;;;;;;11.16;88.07;96253.47;2106105;28;20471;-54
2023/07/06 01:22:35;;;;;;;8.23;4.72;;;;;;;11.13;88.75;96254.44;2101654;28;20073;-54
2023/07/06 01:24:05;;;;;;;9.07;4.88;;;;;;;10.98;88.99;96234.34;2105600;28;20052;-55
2023/07/06 01:25:37;;;;;;;9.43;4.47;;;;;;;11.04;89.45;96254.88;2088211;28;20041;-54
2023/07/06 01:26:50;;;;;;;7.53;4.22;;;;;;;11.02;89.19;96254.09;2104721;28;20467;-54
2023/07/06 01:28:06;;;;;;;8.30;4.60;;;;;;;10.88;89.66;96233.94;2106292;28;20114;-54
2023/07/06 01:29:36;;;;;;;7.47;4.68;;;;;;;10.96;89.79;96252.63;2100867;28;20431;-54
2023/07/06 01:30:40;;;;;;;9.20;4.68;;;;;;;11.03;91.12;96259.19;2102952;28;20048;-54
2023/07/06 01:31:48;;;;;;;9.88;4.90;;;;;;;11.03;91.36;96254.00;2109124;28;20060;-54
2023/07/06 01:32:56;;;;;;;7.53;5.03;;;;;;;11.10;91.44;96262.38;2098701;28;20032;-54
2023/07/06 01:34:25;;;;;;;8.77;4.60;;;;;;;11.12;91.42;96265.78;2092007;28;20085;-54
2023/07/06 01:35:33;;;;;;;7.72;4.13;;;;;;;11.12;91.18;96257.09;2105772;28;20040;-54
2023/07/06 01:36:38;;;;;;;10.52;5.07;;;;;;;11.10;91.37;96265.00;2097999;28;20049;-54
2023/07/06 01:37:41;;;;;;;7.30;5.03;;;;;;;11.00;91.86;96242.91;2099821;28;20033;-54
2023/07/06 01:38:42;;;;;;;9.32;4.93;;;;;;;11.12;91.12;96267.50;2097621;28;20052;-54
2023/07/06 01:39:43;;;;;;;8.13;4.68;;;;;;;11.01;92.12;96242.00;2098813;28;20513;-54
2023/07/06 01:40:45;;;;;;;8.82;5.00;;;;;;;11.08;92.39;96259.00;2115040;28;20048;-54
2023/07/06 01:42:09;;;;;;;10.88;5.47;;;;;;;11.08;91.49;96252.97;2106073;28;20047;-54
2023/07/06 01:43:10;;;;;;;7.18;4.97;;;;;;;11.04;91.72;96255.72;2110324;28;20043;-54
2023/07/06 01:44:13;;;;;;;9.30;5.43;;;;;;;10.91;91.42;96238.16;2106955;28;20391;-54
2023/07/06 01:45:22;;;;;;;7.03;5.03;;;;;;;10.96;91.20;96256.94;2089874;28;20064;-54
2023/07/06 01:46:23;;;;;;;10.32;5.63;;;;;;;10.94;91.26;96257.03;2099032;28;20064;-54
2023/07/06 01:47:24;;;;;;;8.50;5.45;;;;;;;10.94;92.59;96257.03;2098579;28;20403;-54
2023/07/06 01:48:26;;;;;;;12.18;5.80;;;;;;;10.89;91.85;96248.59;2090029;28;20057;-53
2023/07/06 01:49:27;;;;;;;7.93;5.53;;;;;;;10.85;91.97;96249.63;2090585;28;20049;-54
2023/07/06 01:50:46;;;;;;;11.35;5.90;;;;;;;10.83;91.81;96254.06;2098004;28;20423;-54
2023/07/06 01:51:54;;;;;;;11.88;5.78;;;;;;;10.81;92.36;96253.28;2109255;28;20048;-54
2023/07/06 01:53:06;;;;;;;9.85;5.50;;;;;;;10.71;91.67;96239.84;2090043;28;20045;-54
2023/07/06 01:54:09;;;;;;;9.20;6.18;;;;;;;10.66;92.25;96235.75;2085397;28;20049;-54
2023/07/06 01:55:29;;;;;;;8.02;5.63;;;;;;;10.73;92.10;96251.03;2074403;28;20050;-54
2023/07/06 01:56:59;;;;;;;9.85;6.20;;;;;;;10.73;92.36;96257.97;2087095;28;20404;-54
2023/07/06 01:58:23;;;;;;;9.18;5.63;;;;;;;10.67;92.41;96261.69;2091891;28;20055;-54
2023/07/06 01:59:25;;;;;;;10.60;6.03;;;;;;;10.54;93.20;96239.75;2095642;28;20052;-54
2023/07/06 02:00:26;;;;;;;8.23;5.97;;;;;;;10.50;93.02;96243.38;2098081;28;20440;-54
2023/07/06 02:01:29;;;;;;;9.43;6.57;;;;;;;10.50;92.69;96248.56;2098267;28;20056;-54
2023/07/06 02:02:30;;;;;;;10.02;6.80;;;;;;;10.58;92.95;96262.06;2089732;28;20053;-54
2023/07/06 02:03:32;;;;;;;10.98;5.90;;;;;;;10.57;93.51;96261.22;2090386;28;20496;-54
2023/07/06 02:04:34;;;;;;;8.63;5.97;;;;;;;10.56;93.72;96253.53;2089812;28;20053;-54
2023/07/06 02:05:36;;;;;;;8.05;5.95;;;;;;;10.42;93.34;96233.31;2081629;28;20049;-54
2023/07/06 02:06:38;;;;;;;13.07;6.28;;;;;;;10.53;92.99;96258.81;2074011;28;20046;-54
2023/07/06 02:07:41;;;;;;;9.70;6.03;;;;;;;10.48;93.61;96250.41;2082135;28;20060;-54
2023/07/06 02:08:43;;;;;;;11.40;6.32;;;;;;;10.50;93.79;96258.97;2098234;28;20056;-54
2023/07/06 02:09:44;;;;;;;12.77;6.82;;;;;;;10.39;93.94;96243.84;2106112;28;20048;-53
2023/07/06 02:10:46;;;;;;;8.38;6.10;;;;;;;10.48;93.60;96264.22;2106813;28;20048;-54
2023/07/06 02:11:47;;;;;;;10.48;5.95;;;;;;;10.45;93.96;96256.56;2098091;28;20056;-54
2023/07/06 02:12:49;;;;;;;8.70;6.13;;;;;;;10.45;93.61;96260.91;2098627;28;20040;-54
2023/07/06 02:13:50;;;;;;;10.98;6.03;;;;;;;10.43;93.35;96257.56;2106141;28;20071;-54
2023/07/06 02:14:53;;;;;;;10.18;6.10;;;;;;;10.42;93.72;96263.63;2115763;28;20054;-54
2023/07/06 02:15:54;;;;;;;11.43;6.32;;;;;;;10.42;94.20;96258.44;2115014;28;20147;-54
2023/07/06 02:16:55;;;;;;;12.82;5.95;;;;;;;10.34;93.91;96248.38;2106586;28;20051;-54
2023/07/06 02:17:56;;;;;;;9.07;5.95;;;;;;;10.36;93.99;96249.16;2105791;28;20055;-54
2023/07/06 02:19:01;;;;;;;11.10;6.43;;;;;;;10.28;93.62;96249.47;2115153;28;20530;-54
2023/07/06 02:20:03;;;;;;;10.05;5.82;;;;;;;10.33;94.08;96263.13;2105838;28;20052;-54
2023/07/06 02:21:04;;;;;;;9.55;6.43;;;;;;;10.33;94.60;96260.50;2098491;28;20056;-54
2023/07/06 02:22:05;;;;;;;12.43;6.38;;;;;;;10.33;94.70;96264.88;2106118;28;20142;-54
2023/07/06 02:23:07;;;;;;;10.52;6.68;;;;;;;10.18;94.45;96240.34;2097792;28;20056;-54
2023/07/06 02:24:09;;;;;;;8.93;6.20;;;;;;;10.30;94.77;96265.00;2090528;28;20048;-54
2023/07/06 02:25:11;;;;;;;10.50;6.68;;;;;;;10.20;94.61;96242.91;2105688;28;20500;-54
2023/07/06 02:26:12;;;;;;;10.65;6.50;;;;;;;10.28;94.32;96261.63;2105727;28;20060;-54
2023/07/06 02:27:13;;;;;;;9.77;6.18;;;;;;;10.20;94.54;96251.53;2115730;28;20044;-54
2023/07/06 02:28:15;;;;;;;8.93;5.30;;;;;;;10.26;94.65;96259.03;2115084;28;20505;-54
2023/07/06 02:29:16;;;;;;;11.95;6.35;;;;;;;10.25;94.03;96262.56;2115764;28;20459;-54
2023/07/06 02:30:17;;;;;;;11.50;6.22;;;;;;;10.16;94.18;96245.63;2115773;28;20051;-54
2023/07/06 02:31:19;;;;;;;10.10;5.82;;;;;;;10.26;94.43;96256.44;2114961;28;20051;-54
2023/07/06 02:32:20;;;;;;;13.25;6.70;;;;;;;10.26;94.21;96266.00;2115608;28;20058;-55
2023/07/06 02:33:21;;;;;;;8.73;5.78;;;;;;;10.16;94.88;96248.22;2114931;28;20063;-54
2023/07/06 02:34:25;;;;;;;11.50;5.82;;;;;;;10.27;94.72;96265.97;2115667;28;20394;-54
2023/07/06 02:35:26;;;;;;;11.88;6.93;;;;;;;10.31;95.14;96264.91;2105875;28;20059;-54
2023/07/06 02:36:27;;;;;;;9.88;6.70;;;;;;;10.33;94.90;96264.88;2098275;28;20107;-54
2023/07/06 02:37:28;;;;;;;10.57;6.22;;;;;;;10.34;95.61;96269.13;2106318;28;20047;-54
2023/07/06 02:38:29;;;;;;;9.60;6.18;;;;;;;10.32;95.47;96266.63;2115693;28;20097;-54
2023/07/06 02:39:30;;;;;;;11.07;6.05;;;;;;;10.35;95.48;96269.09;2115859;28;20471;-54
2023/07/06 02:40:32;;;;;;;11.13;6.50;;;;;;;10.41;95.40;96261.97;2105374;28;20062;-54
2023/07/06 02:41:35;;;;;;;12.40;6.55;;;;;;;10.45;95.52;96266.97;2106566;28;20071;-55
2023/07/06 02:42:40;;;;;;;11.68;6.63;;;;;;;10.51;95.60;96265.84;2106700;28;20052;-54
2023/07/06 02:43:41;;;;;;;13.32;6.82;;;;;;;10.51;96.35;96263.25;2098348;28;20064;-55
2023/07/06 02:44:43;;;;;;;8.68;6.32;;;;;;;10.57;95.68;96263.00;2098077;28;20063;-54
2023/07/06 02:45:46;;;;;;;10.48;6.53;;;;;;;10.63;96.51;96267.91;2097607;28;20044;-54
2023/07/06 02:46:47;;;;;;;10.02;6.82;;;;;;;10.58;95.56;96246.47;2089080;28;20218;-54
2023/07/06 02:47:48;;;;;;;10.35;6.88;;;;;;;10.72;96.04;96262.34;2089656;28;20049;-54
2023/07/06 02:48:50;;;;;;;9.50;6.40;;;;;;;10.74;96.39;96257.06;2106351;28;20040;-54
2023/07/06 02:49:51;;;;;;;11.88;6.53;;;;;;;10.77;95.78;96260.38;2106422;28;20051;-54
2023/07/06 02:50:52;;;;;;;12.80;6.53;;;;;;;10.80;95.64;96262.00;2106456;28;20035;-54
2023/07/06 02:51:53;;;;;;;8.95;6.20;;;;;;;10.81;95.56;96261.91;2105977;28;20047;-54
2023/07/06 02:52:54;;;;;;;10.13;6.20;;;;;;;10.84;96.39;96258.34;2106661;28;20039;-54
2023/07/06 02:53:57;;;;;;;9.73;6.22;;;;;;;10.89;96.21;96261.59;2115758;28;20042;-54
2023/07/06 02:54:58;;;;;;;9.48;5.60;;;;;;;10.92;96.02;96261.44;2106358;28;20044;-54
2023/07/06 02:55:59;;;;;;;10.98;6.75;;;;;;;10.94;95.49;96262.22;2105786;28;20078;-54
2023/07/06 02:57:01;;;;;;;14.20;6.72;;;;;;;10.98;94.25;96260.31;2097525;28;20116;-54
2023/07/06 02:58:02;;;;;;;12.30;7.28;;;;;;;11.01;95.26;96261.06;2106091;28;20056;-54
2023/07/06 02:59:03;;;;;;;10.00;6.40;;;;;;;11.01;94.85;96260.19;2114912;28;20062;-54
2023/07/06 03:00:10;;;;;;;11.35;6.30;;;;;;;11.00;94.46;96254.16;2105639;28;20052;-54
2023/07/06 03:01:12;;;;;;;14.07;6.80;;;;;;;10.99;95.11;96259.44;2097750;28;20049;-54
2023/07/06 03:02:13;;;;;;;10.55;6.43;;;;;;;10.87;95.06;96236.59;2106479;28;20047;-54
2023/07/06 03:03:14;;;;;;;11.52;7.10;;;;;;;10.95;94.96;96255.28;2106589;28;20044;-53
2023/07/06 03:04:17;;;;;;;13.10;6.10;;;;;;;10.93;94.91;96250.16;2105710;28;20143;-54
2023/07/06 03:05:21;;;;;;;11.43;6.88;;;;;;;10.91;94.21;96249.38;2106381;28;20059;-54
2023/07/06 03:06:22;;;;;;;13.63;6.60;;;;;;;10.88;94.35;96253.84;2106833;28;20058;-54
2023/07/06 03:07:23;;;;;;;8.30;5.95;;;;;;;10.84;93.96;96260.09;2114561;28;20062;-54
2023/07/06 03:08:25;;;;;;;10.00;6.07;;;;;;;10.81;94.29;96253.28;2115677;28;20046;-54
2023/07/06 03:09:27;;;;;;;11.45;6.78;;;;;;;10.75;94.24;96254.41;2105648;28;20048;-54
2023/07/06 03:10:28;;;;;;;8.65;6.18;;;;;;;10.72;94.00;96257.13;2097555;28;20112;-54
2023/07/06 03:11:33;;;;;;;11.77;6.70;;;;;;;10.59;94.63;96237.81;2105607;28;20083;-54
2023/07/06 03:12:37;;;;;;;10.00;6.50;;;;;;;10.65;94.27;96249.69;2115279;28;20047;-54
2023/07/06 03:13:39;;;;;;;12.38;7.07;;;;;;;10.63;94.37;96249.72;2115218;28;20047;-54
2023/07/06 03:14:40;;;;;;;11.38;7.18;;;;;;;10.61;94.68;96251.53;2115344;28;20047;-54
2023/07/06 03:15:41;;;;;;;10.10;6.47;;;;;;;10.50;94.25;96235.59;2105468;28;20052;-54
2023/07/06 03:16:43;;;;;;;11.13;6.70;;;;;;;10.56;94.17;96253.53;2105542;28;20052;-54
2023/07/06 03:17:51;;;;;;;11.77;6.60;;;;;;;10.55;94.65;96241.44;2097791;28;20056;-54
2023/07/06 03:18:52;;;;;;;10.45;7.45;;;;;;;10.55;94.57;96246.63;2098474;28;20404;-54
2023/07/06 03:19:53;;;;;;;11.63;6.43;;;;;;;10.53;94.09;96253.63;2105825;28;20048;-54
2023/07/06 03:20:55;;;;;;;12.38;7.07;;;;;;;10.50;94.20;96245.97;2106002;28;20048;-54
2023/07/06 03:21:58;;;;;;;10.27;6.72;;;;;;;10.54;94.62;96242.34;2097869;28;20353;-54
2023/07/06 03:22:59;;;;;;;9.77;6.45;;;;;;;10.49;94.61;96239.94;2106044;28;20060;-54
2023/07/06 03:24:01;;;;;;;10.27;6.75;;;;;;;10.49;94.57;96239.09;2114522;28;20054;-54
2023/07/06 03:25:02;;;;;;;11.43;7.13;;;;;;;10.48;94.11;96243.47;2106319;28;20039;-54
2023/07/06 03:26:03;;;;;;;11.15;6.78;;;;;;;10.44;94.56;96239.28;2097700;28;20064;-54
2023/07/06 03:27:04;;;;;;;11.32;7.15;;;;;;;10.36;94.31;96220.59;2106382;28;20051;-54
2023/07/06 03:28:05;;;;;;;9.63;6.88;;;;;;;10.41;95.30;96239.44;2114544;28;20047;-54
2023/07/06 03:29:08;;;;;;;12.35;7.22;;;;;;;10.35;94.88;96230.16;2115351;28;20035;-54
2023/07/06 03:30:10;;;;;;;10.65;7.22;;;;;;;10.42;94.67;96245.47;2115350;28;20050;-54
2023/07/06 03:31:14;;;;;;;12.52;7.63;;;;;;;10.40;95.40;96239.47;2114727;28;20074;-54
2023/07/06 03:32:15;;;;;;;12.00;6.57;;;;;;;10.39;95.44;96236.03;2106016;28;20475;-54
2023/07/06 03:33:16;;;;;;;12.20;7.28;;;;;;;10.38;95.65;96237.81;2106240;28;20040;-54
2023/07/06 03:34:18;;;;;;;11.90;7.32;;;;;;;10.38;95.75;96231.78;2114632;28;20060;-54
2023/07/06 03:35:21;;;;;;;11.90;7.10;;;;;;;10.36;95.80;96239.63;2097465;28;20049;-54
2023/07/06 03:36:22;;;;;;;11.05;7.05;;;;;;;10.38;95.52;96237.81;2097795;28;20056;-54
2023/07/06 03:37:23;;;;;;;13.50;7.72;;;;;;;10.38;94.94;96239.56;2106096;28;20402;-54
2023/07/06 03:38:25;;;;;;;12.27;6.90;;;;;;;10.28;95.01;96223.53;2114599;28;20051;-54
2023/07/06 03:39:27;;;;;;;12.80;7.13;;;;;;;10.32;95.62;96224.25;2106046;28;20040;-54
2023/07/06 03:40:29;;;;;;;12.15;7.18;;;;;;;10.30;95.41;96224.31;2106428;28;20055;-54
2023/07/06 03:41:30;;;;;;;11.52;6.88;;;;;;;10.36;95.46;96237.03;2115125;28;20044;-54
2023/07/06 03:42:32;;;;;;;10.95;7.05;;;;;;;10.36;95.55;96241.38;2106007;28;20372;-54
2023/07/06 03:43:33;;;;;;;11.20;7.25;;;;;;;10.36;95.99;96241.38;2096615;28;20052;-54
2023/07/06 03:44:34;;;;;;;12.13;6.63;;;;;;;10.34;96.20;96244.06;2105409;28;20052;-54
2023/07/06 03:45:36;;;;;;;10.52;6.78;;;;;;;10.34;96.22;96240.59;2115115;28;20047;-54
2023/07/06 03:46:38;;;;;;;9.68;6.38;;;;;;;10.35;96.28;96242.28;2105427;28;20048;-54
2023/07/06 03:47:39;;;;;;;10.93;5.85;;;;;;;10.28;96.47;96230.47;2105744;28;20135;-54
2023/07/06 03:48:44;;;;;;;12.02;5.93;;;;;;;10.35;96.13;96239.69;2114369;28;20059;-54
2023/07/06 03:49:45;;;;;;;8.63;6.03;;;;;;;10.40;96.23;96242.06;2114341;28;20106;-54
2023/07/06 03:50:46;;;;;;;8.52;5.75;;;;;;;10.42;95.47;96248.06;2115498;28;20043;-55
2023/07/06 03:51:47;;;;;;;8.65;5.78;;;;;;;10.42;96.25;96248.91;2114616;28;20056;-54
2023/07/06 03:52:48;;;;;;;8.70;5.40;;;;;;;10.34;96.29;96244.06;2115055;28;20039;-54
2023/07/06 03:53:50;;;;;;;8.90;5.68;;;;;;;10.42;95.73;96246.28;2114524;28;20051;-54
2023/07/06 03:54:51;;;;;;;10.05;6.05;;;;;;;10.43;95.49;96248.00;2114296;28;20056;-54
2023/07/06 03:55:53;;;;;;;10.55;5.93;;;;;;;10.29;96.46;96224.38;2114432;28;20051;-54
2023/07/06 03:56:54;;;;;;;8.07;4.97;;;;;;;10.43;96.63;96244.56;2115082;28;20032;-54
2023/07/06 03:57:57;;;;;;;9.15;6.05;;;;;;;10.44;95.97;96248.84;2114504;28;20058;-54
2023/07/06 03:58:58;;;;;;;8.38;5.80;;;;;;;10.43;95.53;96254.94;2115154;28;20368;-54
2023/07/06 03:59:59;;;;;;;8.00;5.05;;;;;;;10.33;96.18;96238.91;2114973;28;20055;-54
2023/07/06 04:01:00;;;;;;;9.57;6.05;;;;;;;10.43;95.96;96250.59;2114912;28;20044;-54
2023/07/06 04:02:02;;;;;;;9.90;5.80;;;;;;;10.33;95.53;96236.31;2115052;28;20123;-54
2023/07/06 04:03:03;;;;;;;10.70;6.28;;;;;;;10.46;95.60;96254.81;2114303;28;20047;-54
2023/07/06 04:04:06;;;;;;;9.80;5.47;;;;;;;10.42;95.51;96248.91;2114882;28;20044;-54
2023/07/06 04:05:08;;;;;;;11.23;6.07;;;;;;;10.43;95.54;96253.19;2114023;28;20078;-54
2023/07/06 04:06:09;;;;;;;10.00;6.00;;;;;;;10.46;96.35;96247.03;2115237;28;20046;-54
2023/07/06 04:07:11;;;;;;;12.25;6.90;;;;;;;10.48;96.05;96253.00;2114674;28;20051;-54
2023/07/06 04:08:13;;;;;;;8.90;5.53;;;;;;;10.38;96.57;96234.38;2115043;28;20451;-54
2023/07/06 04:09:14;;;;;;;10.48;6.07;;;;;;;10.50;96.53;96259.78;2115343;28;20040;-54
2023/07/06 04:10:15;;;;;;;11.45;6.15;;;;;;;10.52;95.81;96257.97;2114800;28;20039;-55
2023/07/06 04:11:16;;;;;;;11.05;6.10;;;;;;;10.54;96.40;96257.94;2108726;28;20538;-54
2023/07/06 04:12:17;;;;;;;9.25;5.72;;;;;;;10.57;96.26;96260.38;2106214;28;20052;-54
2023/07/06 04:13:19;;;;;;;11.98;6.88;;;;;;;10.56;95.84;96253.53;2114202;28;20048;-54
2023/07/06 04:14:25;;;;;;;12.82;7.03;;;;;;;10.58;96.05;96252.53;2114363;28;20051;-54
2023/07/06 04:15:26;;;;;;;11.85;7.15;;;;;;;10.51;96.44;96238.13;2115308;28;20040;-54
2023/07/06 04:16:27;;;;;;;14.00;6.57;;;;;;;10.71;96.49;96260.63;2097849;28;20071;-54
2023/07/06 04:17:28;;;;;;;11.57;6.18;;;;;;;10.74;96.31;96260.50;2096909;28;20516;-54
2023/07/06 04:18:29;;;;;;;11.60;6.78;;;;;;;10.76;96.81;96258.69;2114438;28;20052;-54
2023/07/06 04:19:30;;;;;;;9.55;6.75;;;;;;;10.72;96.04;96244.16;2114847;28;20055;-54
2023/07/06 04:20:34;;;;;;;9.70;6.60;;;;;;;10.85;96.40;96261.78;2104988;28;20060;-54
2023/07/06 04:21:36;;;;;;;11.32;6.32;;;;;;;10.87;96.65;96259.97;2106440;28;20048;-55
2023/07/06 04:22:37;;;;;;;10.40;6.78;;;;;;;10.89;96.66;96255.56;2114836;28;20051;-55
2023/07/06 04:23:38;;;;;;;10.93;6.88;;;;;;;10.93;97.00;96262.28;2114982;28;20043;-54
2023/07/06 04:24:39;;;;;;;12.35;7.30;;;;;;;10.96;96.63;96267.34;2115019;28;20036;-54
2023/07/06 04:25:40;;;;;;;13.90;7.18;;;;;;;10.99;96.39;96260.28;2114190;28;20467;-55
2023/07/06 04:26:42;;;;;;;12.23;6.57;;;;;;;11.03;97.11;96263.56;2113938;28;20454;-54
2023/07/06 04:27:44;;;;;;;12.48;6.63;;;;;;;11.06;96.20;96268.63;2114843;28;20039;-54
2023/07/06 04:28:45;;;;;;;12.52;7.40;;;;;;;11.00;97.03;96248.13;2114923;28;20043;-54
2023/07/06 04:29:46;;;;;;;9.05;6.28;;;;;;;11.13;96.60;96266.59;2114180;28;20533;-54
2023/07/06 04:30:49;;;;;;;9.85;6.93;;;;;;;11.07;96.23;96249.53;2114232;28;20050;-54
2023/07/06 04:31:52;;;;;;;13.43;7.40;;;;;;;11.22;96.19;96268.78;2114126;28;20085;-54
2023/07/06 04:32:53;;;;;;;11.90;7.18;;;;;;;11.23;96.64;96266.13;2113782;28;20143;-54
2023/07/06 04:33:54;;;;;;;12.13;6.68;;;;;;;11.29;96.77;96274.56;2114497;28;20056;-54
2023/07/06 04:34:55;;;;;;;10.00;6.72;;;;;;;11.31;95.73;96263.19;2113829;28;20054;-54
2023/07/06 04:35:56;;;;;;;11.43;6.70;;;;;;;11.36;95.37;96266.41;2105924;28;20039;-54
2023/07/06 04:36:57;;;;;;;12.95;7.85;;;;;;;11.37;95.06;96268.09;2105264;28;20048;-55
2023/07/06 04:37:59;;;;;;;14.23;8.05;;;;;;;11.33;95.48;96255.28;2114948;28;20055;-54
2023/07/06 04:39:01;;;;;;;11.75;7.22;;;;;;;11.34;94.65;96257.00;2113853;28;20063;-54
2023/07/06 04:40:11;;;;;;;13.25;8.00;;;;;;;11.49;94.38;96271.88;2114537;28;20483;-54
2023/07/06 04:41:13;;;;;;;13.93;7.07;;;;;;;11.54;94.41;96269.91;2113867;28;20051;-54
2023/07/06 04:42:14;;;;;;;10.68;6.55;;;;;;;11.54;93.89;96267.28;2114017;28;20052;-54
2023/07/06 04:43:15;;;;;;;18.48;7.93;;;;;;;11.61;94.03;96273.06;2114468;28;20063;-54
2023/07/06 04:44:18;;;;;;;12.80;7.13;;;;;;;11.50;93.07;96257.97;2113744;28;20055;-54
2023/07/06 04:45:19;;;;;;;10.80;7.47;;;;;;;11.62;91.77;96274.75;2114891;28;20043;-54
2023/07/06 04:46:20;;;;;;;12.13;7.72;;;;;;;11.58;91.66;96255.00;2113927;28;20052;-54
2023/07/06 04:47:23;;;;;;;11.90;7.05;;;;;;;11.74;91.63;96276.78;2114964;28;20048;-54
2023/07/06 04:48:24;;;;;;;14.15;7.10;;;;;;;11.78;91.82;96280.06;2114650;28;20475;-54
2023/07/06 04:49:25;;;;;;;11.00;7.20;;;;;;;11.83;91.74;96280.69;2113865;28;20075;-54
2023/07/06 04:50:27;;;;;;;12.63;8.00;;;;;;;11.85;92.19;96279.72;2114950;28;20459;-54
2023/07/06 04:51:28;;;;;;;11.93;6.90;;;;;;;11.85;92.05;96274.50;2114170;28;20058;-54
2023/07/06 04:52:29;;;;;;;11.88;6.97;;;;;;;11.92;90.88;96280.28;2114163;28;20056;-54
2023/07/06 04:53:32;;;;;;;11.02;7.30;;;;;;;11.95;91.00;96274.94;2114011;28;20104;-54
2023/07/06 04:54:33;;;;;;;10.15;6.43;;;;;;;12.00;91.15;96282.50;2114798;28;20054;-54
2023/07/06 04:55:34;;;;;;;11.60;6.78;;;;;;;11.95;91.25;96258.47;2114158;28;20051;-54
2023/07/06 04:56:37;;;;;;;12.50;7.18;;;;;;;12.12;91.25;96276.72;2114414;28;20050;-55
2023/07/06 04:57:39;;;;;;;11.30;6.78;;;;;;;12.13;90.99;96275.78;2113586;28;20058;-54